Time;durP1;ratioP1;P1;durP2;ratioP2;P2;SDS_P1;SDS_P2;PMS_P1;PMS_P2;Temp;Humidity;BMP_temperature;BMP_pressure;BME280_temperature;BME280_humidity;BME280_pressure;Samples;Min_cycle;Max_cycle;Signal;HPM_P1;HPM_P2
2022/01/23 00:00:31;;;;;;;;;43.00;37.67;;;;;-147.59;100.00;57188.72;6238780;22;46218;-84
2022/01/23 00:03:00;;;;;;;;;50.00;36.67;;;;;-147.59;100.00;57188.72;6272833;22;45345;-83
2022/01/23 00:05:32;;;;;;;;;42.00;32.67;;;;;-147.59;100.00;57188.72;6303628;22;45284;-84
2022/01/23 00:07:58;;;;;;;;;36.67;33.33;;;;;-147.59;100.00;57188.72;6303914;22;45382;-84
2022/01/23 00:10:23;;;;;;;;;42.00;35.33;;;;;-147.59;100.00;57188.72;6303261;22;46061;-84
2022/01/23 00:12:54;;;;;;;;;41.67;36.00;;;;;-147.59;100.00;57188.72;6303934;22;45602;-84
2022/01/23 00:18:03;;;;;;;;;37.67;32.33;;;;;-147.59;100.00;57188.72;6305273;22;45255;-85
2022/01/23 00:20:28;;;;;;;;;39.67;31.00;;;;;-147.59;100.00;57188.72;6303225;22;46979;-84
2022/01/23 00:22:58;;;;;;;;;34.00;26.67;;;;;-147.59;100.00;57188.72;6305753;22;45305;-84
2022/01/23 00:30:56;;;;;;;;;38.00;31.00;;;;;-147.59;100.00;57188.72;6305275;22;45473;-84
2022/01/23 00:33:23;;;;;;;;;36.67;27.00;;;;;-147.59;100.00;57188.72;6305970;22;45255;-84
2022/01/23 00:35:49;;;;;;;;;31.33;28.67;;;;;-147.59;100.00;57188.72;6304049;22;45360;-85
2022/01/23 00:38:16;;;;;;;;;42.67;35.67;;;;;-147.59;100.00;57188.72;6303510;22;45323;-84
2022/01/23 00:40:44;;;;;;;;;38.50;32.00;;;;;-147.59;100.00;57188.72;6303539;22;47034;-84
2022/01/23 00:43:16;;;;;;;;;32.00;27.00;;;;;-147.59;100.00;57188.72;6302709;22;45347;-84
2022/01/23 00:45:47;;;;;;;;;35.67;31.33;;;;;-147.59;100.00;57188.72;6303944;22;45674;-84
2022/01/23 00:48:14;;;;;;;;;38.67;34.00;;;;;-147.59;100.00;57188.72;6303593;22;45402;-84
2022/01/23 00:50:42;;;;;;;;;34.33;30.33;;;;;-147.59;100.00;57188.72;6305804;22;45340;-84
2022/01/23 00:53:10;;;;;;;;;37.67;33.33;;;;;-147.59;100.00;57188.72;6303321;22;45334;-84
2022/01/23 00:55:44;;;;;;;;;42.67;31.67;;;;;-147.59;100.00;57188.72;6303613;22;45221;-84
2022/01/23 00:58:10;;;;;;;;;36.33;34.00;;;;;-147.59;100.00;57188.72;6302942;22;45581;-84
2022/01/23 01:00:36;;;;;;;;;37.67;31.67;;;;;-147.59;100.00;57188.72;6303102;22;48302;-84
2022/01/23 01:03:02;;;;;;;;;39.33;29.33;;;;;-147.59;100.00;57188.72;6303053;22;45477;-84
2022/01/23 01:05:28;;;;;;;;;46.67;34.33;;;;;-147.59;100.00;57188.72;6303247;22;45171;-84
2022/01/23 01:07:58;;;;;;;;;46.33;34.33;;;;;-147.59;100.00;57188.72;6303776;22;45522;-83
2022/01/23 01:10:40;;;;;;;;;37.00;32.00;;;;;-147.59;100.00;57188.72;6302815;22;47093;-84
2022/01/23 01:13:09;;;;;;;;;30.00;25.67;;;;;-147.59;100.00;57188.72;6302704;22;45226;-84
2022/01/23 01:32:25;;;;;;;;;24.67;21.67;;;;;-147.59;100.00;57188.72;6209193;22;45758;-84
2022/01/23 01:35:02;;;;;;;;;28.67;22.33;;;;;-147.59;100.00;57188.72;6210072;22;45611;-84
2022/01/23 01:37:27;;;;;;;;;30.67;25.00;;;;;-147.59;100.00;57188.72;6184578;22;45400;-84
2022/01/23 01:39:53;;;;;;;;;29.00;27.67;;;;;-147.59;100.00;57188.72;6183569;22;45149;-84
2022/01/23 01:42:18;;;;;;;;;34.67;28.33;;;;;-147.59;100.00;57188.72;6208832;22;46185;-85
2022/01/23 01:44:43;;;;;;;;;35.33;29.00;;;;;-147.59;100.00;57188.72;6184521;22;45265;-84
2022/01/23 01:47:09;;;;;;;;;36.67;29.33;;;;;-147.59;100.00;57188.72;6184000;22;45276;-85
2022/01/23 01:49:34;;;;;;;;;34.00;28.33;;;;;-147.59;100.00;57188.72;6184673;22;45396;-85
2022/01/23 01:52:02;;;;;;;;;37.00;31.00;;;;;-147.59;100.00;57188.72;6234330;22;46133;-85
2022/01/23 01:54:30;;;;;;;;;30.33;28.67;;;;;-147.59;100.00;57188.72;6302860;22;45921;-85
2022/01/23 02:10:29;;;;;;;;;33.33;29.33;;;;;-147.59;100.00;57188.72;6208453;22;45300;-84
2022/01/23 02:15:44;;;;;;;;;30.33;22.67;;;;;-147.59;100.00;57188.72;6209791;22;45304;-84
2022/01/23 02:51:14;;;;;;;;;27.33;20.67;;;;;-147.59;100.00;57188.72;6271112;22;45453;-84
2022/01/23 02:56:33;;;;;;;;;29.00;22.00;;;;;-147.59;100.00;57188.72;6269783;22;45847;-84
2022/01/23 02:59:00;;;;;;;;;21.33;21.33;;;;;-147.59;100.00;57188.72;6271042;22;45410;-84
2022/01/23 03:01:32;;;;;;;;;24.67;21.00;;;;;-147.59;100.00;57188.72;6244601;22;45325;-84
2022/01/23 03:04:02;;;;;;;;;27.67;22.00;;;;;-147.59;100.00;57188.72;6244986;22;45371;-84
2022/01/23 03:12:05;;;;;;;;;22.33;21.33;;;;;-147.59;100.00;57188.72;6304152;22;45275;-84
2022/01/23 03:30:29;;;;;;;;;27.67;23.00;;;;;-147.59;100.00;57188.72;6304002;22;45218;-84
2022/01/23 03:32:55;;;;;;;;;20.67;15.00;;;;;-147.59;100.00;57188.72;6305459;22;45314;-84
2022/01/23 03:35:22;;;;;;;;;34.67;24.33;;;;;-147.59;100.00;57188.72;6303504;22;45260;-83
2022/01/23 03:37:48;;;;;;;;;29.67;24.00;;;;;-147.59;100.00;57188.72;6305298;22;45441;-84
2022/01/23 03:40:15;;;;;;;;;25.67;22.00;;;;;-147.59;100.00;57188.72;6305994;22;45438;-83
2022/01/23 03:42:42;;;;;;;;;32.67;30.67;;;;;-147.59;100.00;57188.72;6306081;22;45243;-84
2022/01/23 03:47:42;;;;;;;;;22.00;21.33;;;;;-147.59;100.00;57188.72;6305302;22;45560;-84
2022/01/23 03:50:12;;;;;;;;;31.67;25.33;;;;;-147.59;100.00;57188.72;6303374;22;45365;-84
2022/01/23 03:52:38;;;;;;;;;40.00;27.67;;;;;-147.59;100.00;57188.72;6305202;22;45170;-84
2022/01/23 03:55:06;;;;;;;;;28.00;22.67;;;;;-147.59;100.00;57188.72;6303821;22;45257;-84
2022/01/23 03:57:32;;;;;;;;;25.67;21.33;;;;;-147.59;100.00;57188.72;6303548;22;48317;-84
2022/01/23 03:59:57;;;;;;;;;28.50;24.50;;;;;-147.59;100.00;57188.72;6303462;22;46300;-84
2022/01/23 04:02:23;;;;;;;;;25.00;18.00;;;;;-147.59;100.00;57188.72;6303357;22;45393;-84
2022/01/23 04:04:48;;;;;;;;;28.33;25.67;;;;;-147.59;100.00;57188.72;6303982;22;45362;-84
2022/01/23 04:07:24;;;;;;;;;32.67;27.33;;;;;-147.59;100.00;57188.72;6305054;22;46318;-84
2022/01/23 04:09:50;;;;;;;;;29.33;21.33;;;;;-147.59;100.00;57188.72;6304241;22;45363;-84
2022/01/23 04:15:00;;;;;;;;;24.00;21.67;;;;;-147.59;100.00;57188.72;6305756;22;45197;-84
2022/01/23 04:20:21;;;;;;;;;36.33;29.00;;;;;-147.59;100.00;57188.72;6304725;22;45413;-84
2022/01/23 04:33:48;;;;;;;;;33.33;23.00;;;;;-147.59;100.00;57188.72;6305526;22;45157;-84
2022/01/23 05:01:08;;;;;;;;;27.33;20.33;;;;;-147.59;100.00;57188.72;6240462;22;45485;-84
2022/01/23 05:06:26;;;;;;;;;24.33;17.67;;;;;-147.59;100.00;57188.72;6240990;22;45194;-83
2022/01/23 05:08:52;;;;;;;;;23.33;19.00;;;;;-147.59;100.00;57188.72;6240606;22;45285;-84
2022/01/23 05:11:18;;;;;;;;;22.67;17.33;;;;;-147.59;100.00;57188.72;6239750;22;47339;-84
2022/01/23 05:13:44;;;;;;;;;17.33;16.33;;;;;-147.59;100.00;57188.72;6240421;22;45975;-82
2022/01/23 05:16:11;;;;;;;;;20.00;16.33;;;;;-147.59;100.00;57188.72;6281140;22;45486;-84
2022/01/23 05:18:37;;;;;;;;;21.33;17.67;;;;;-147.59;100.00;57188.72;6304800;22;45542;-83
2022/01/23 05:23:36;;;;;;;;;19.00;17.67;;;;;-147.59;100.00;57188.72;6305289;22;45323;-84
2022/01/23 05:26:01;;;;;;;;;17.00;15.67;;;;;-147.59;100.00;57188.72;6303838;22;45189;-84
2022/01/23 05:28:26;;;;;;;;;23.33;21.33;;;;;-147.59;100.00;57188.72;6303476;22;45566;-83
2022/01/23 05:30:52;;;;;;;;;23.00;18.00;;;;;-147.59;100.00;57188.72;6305200;22;45315;-84
2022/01/23 05:33:17;;;;;;;;;22.67;19.33;;;;;-147.59;100.00;57188.72;6304861;22;45398;-84
2022/01/23 05:35:42;;;;;;;;;19.00;14.67;;;;;-147.59;100.00;57188.72;6305803;22;45340;-84
2022/01/23 05:38:09;;;;;;;;;16.33;16.33;;;;;-147.59;100.00;57188.72;6303827;22;45614;-84
2022/01/23 05:40:34;;;;;;;;;16.33;13.33;;;;;-147.59;100.00;57188.72;6305047;22;45515;-84
2022/01/23 05:43:00;;;;;;;;;15.67;13.33;;;;;-147.59;100.00;57188.72;6302704;22;45502;-84
2022/01/23 05:45:25;;;;;;;;;15.00;12.00;;;;;-147.59;100.00;57188.72;6305361;22;45276;-84
2022/01/23 05:47:50;;;;;;;;;15.33;12.33;;;;;-147.59;100.00;57188.72;6302926;22;45420;-84
2022/01/23 05:50:16;;;;;;;;;20.00;13.33;;;;;-147.59;100.00;57188.72;6303487;22;47100;-86
2022/01/23 05:52:41;;;;;;;;;21.00;15.33;;;;;-147.59;100.00;57188.72;6304961;22;45369;-82
2022/01/23 05:55:07;;;;;;;;;11.67;8.33;;;;;-147.59;100.00;57188.72;6305317;22;45314;-82
2022/01/23 05:57:32;;;;;;;;;20.00;12.00;;;;;-147.59;100.00;57188.72;6302728;22;45530;-82
2022/01/23 05:59:57;;;;;;;;;11.67;11.00;;;;;-147.59;100.00;57188.72;6303098;22;46986;-83
2022/01/23 06:02:23;;;;;;;;;16.00;12.33;;;;;-147.59;100.00;57188.72;6302823;22;45796;-83
2022/01/23 06:04:48;;;;;;;;;17.00;16.33;;;;;-147.59;100.00;57188.72;6304852;22;45176;-83
2022/01/23 06:07:14;;;;;;;;;15.00;11.67;;;;;-147.59;100.00;57188.72;6305900;22;45293;-83
2022/01/23 06:09:40;;;;;;;;;16.33;11.67;;;;;-147.59;100.00;57188.72;6303516;22;47157;-82
2022/01/23 06:12:07;;;;;;;;;16.00;13.00;;;;;-147.59;100.00;57188.72;6305027;22;45174;-82
2022/01/23 06:14:32;;;;;;;;;16.00;12.67;;;;;-147.59;100.00;57188.72;6302702;22;45362;-82
2022/01/23 06:16:58;;;;;;;;;11.67;11.33;;;;;-147.59;100.00;57188.72;6304438;22;45430;-83
2022/01/23 06:19:23;;;;;;;;;17.33;12.00;;;;;-147.59;100.00;57188.72;6302850;22;47949;-82
2022/01/23 06:21:48;;;;;;;;;14.33;11.00;;;;;-147.59;100.00;57188.72;6304993;22;45368;-82
2022/01/23 06:24:29;;;;;;;;;13.33;11.67;;;;;-147.59;100.00;57188.72;6305120;22;45377;-82
2022/01/23 06:26:57;;;;;;;;;15.00;12.00;;;;;-147.59;100.00;57188.72;6304652;22;45425;-82
2022/01/23 06:29:23;;;;;;;;;10.67;10.67;;;;;-147.59;100.00;57188.72;6302211;22;47215;-82
2022/01/23 06:31:50;;;;;;;;;17.67;11.67;;;;;-147.59;100.00;57188.72;6301551;22;45959;-82
2022/01/23 06:34:17;;;;;;;;;17.00;9.00;;;;;-147.59;100.00;57188.72;6304353;22;45378;-82
2022/01/23 06:36:44;;;;;;;;;17.00;12.33;;;;;-147.59;100.00;57188.72;6302880;22;45511;-82
2022/01/23 06:39:11;;;;;;;;;11.00;7.67;;;;;-147.59;100.00;57188.72;6302515;22;48646;-82
2022/01/23 06:41:37;;;;;;;;;16.00;12.00;;;;;-147.59;100.00;57188.72;6302505;22;45912;-82
2022/01/23 06:44:04;;;;;;;;;15.67;12.67;;;;;-147.59;100.00;57188.72;6305459;22;45343;-82
2022/01/23 06:46:30;;;;;;;;;12.33;11.67;;;;;-147.59;100.00;57188.72;6302494;22;45483;-82
2022/01/23 06:48:55;;;;;;;;;10.33;8.00;;;;;-147.59;100.00;57188.72;6303079;22;48141;-83
2022/01/23 06:51:21;;;;;;;;;11.33;10.33;;;;;-147.59;100.00;57188.72;6303010;22;45247;-83
2022/01/23 06:53:46;;;;;;;;;11.67;9.33;;;;;-147.59;100.00;57188.72;6304597;22;45310;-82
2022/01/23 06:56:12;;;;;;;;;12.67;12.00;;;;;-147.59;100.00;57188.72;6304955;22;45287;-83
2022/01/23 06:58:37;;;;;;;;;11.67;10.00;;;;;-147.59;100.00;57188.72;6304620;22;45346;-83
2022/01/23 07:01:07;;;;;;;;;11.00;9.33;;;;;-147.59;100.00;57188.72;6302313;22;45320;-82
2022/01/23 07:03:36;;;;;;;;;7.67;7.67;;;;;-147.59;100.00;57188.72;6304699;22;45342;-82
2022/01/23 07:06:01;;;;;;;;;12.00;8.67;;;;;-147.59;100.00;57188.72;6302980;22;45495;-82
2022/01/23 07:08:27;;;;;;;;;12.00;12.00;;;;;-147.59;100.00;57188.72;6303844;22;45342;-82
2022/01/23 07:10:52;;;;;;;;;10.00;8.00;;;;;-147.59;100.00;57188.72;6304321;22;45496;-82
2022/01/23 07:13:18;;;;;;;;;12.00;8.00;;;;;-147.59;100.00;57188.72;6305490;22;45114;-83
2022/01/23 07:15:43;;;;;;;;;10.67;9.33;;;;;-147.59;100.00;57188.72;6302558;22;45537;-82
2022/01/23 07:18:09;;;;;;;;;14.33;8.67;;;;;-147.59;100.00;57188.72;6304262;22;46233;-83
2022/01/23 07:20:35;;;;;;;;;21.33;14.33;;;;;-147.59;100.00;57188.72;6302419;22;45368;-81
2022/01/23 07:23:00;;;;;;;;;12.67;12.00;;;;;-147.59;100.00;57188.72;6302507;22;45233;-82
2022/01/23 07:25:26;;;;;;;;;10.67;8.67;;;;;-147.59;100.00;57188.72;6302870;22;45484;-82
2022/01/23 07:27:55;;;;;;;;;16.00;11.33;;;;;-147.59;100.00;57188.72;6302520;22;47872;-82
2022/01/23 07:32:52;;;;;;;;;23.33;16.67;;;;;-147.59;100.00;57188.72;6304985;22;45342;-82
2022/01/23 07:35:18;;;;;;;;;17.67;13.67;;;;;-147.59;100.00;57188.72;6302908;22;45408;-82
2022/01/23 07:37:43;;;;;;;;;16.67;15.67;;;;;-147.59;100.00;57188.72;6302416;22;48127;-82
2022/01/23 07:40:09;;;;;;;;;18.00;15.00;;;;;-147.59;100.00;57188.72;6304639;22;45318;-82
2022/01/23 07:42:35;;;;;;;;;15.00;12.00;;;;;-147.59;100.00;57188.72;6304637;22;45323;-82
2022/01/23 07:45:01;;;;;;;;;16.00;12.33;;;;;-147.59;100.00;57188.72;6302228;22;45301;-82
2022/01/23 07:47:27;;;;;;;;;15.67;14.67;;;;;-147.59;100.00;57188.72;6302556;22;47413;-82
2022/01/23 07:49:52;;;;;;;;;16.33;11.00;;;;;-147.59;100.00;57188.72;6301785;22;46177;-82
2022/01/23 07:52:18;;;;;;;;;16.33;14.33;;;;;-147.59;100.00;57188.72;6304523;22;45185;-82
2022/01/23 07:54:44;;;;;;;;;19.00;15.33;;;;;-147.59;100.00;57188.72;6304393;22;45361;-82
2022/01/23 07:57:09;;;;;;;;;15.00;12.33;;;;;-147.59;100.00;57188.72;6302345;22;48288;-82
2022/01/23 07:59:35;;;;;;;;;12.00;8.33;;;;;-147.59;100.00;57188.72;6302483;22;45286;-80
2022/01/23 08:02:02;;;;;;;;;10.33;10.33;;;;;-147.59;100.00;57188.72;6302163;22;45301;-83
2022/01/23 08:04:27;;;;;;;;;16.00;10.67;;;;;-147.59;100.00;57188.72;6302312;22;45239;-83
2022/01/23 08:07:11;;;;;;;;;10.33;10.33;;;;;-147.59;100.00;57188.72;6302017;22;47074;-83
2022/01/23 08:09:36;;;;;;;;;16.33;12.67;;;;;-147.59;100.00;57188.72;6302325;22;45218;-83
2022/01/23 08:12:03;;;;;;;;;13.33;11.67;;;;;-147.59;100.00;57188.72;6301603;22;45205;-83
2022/01/23 08:14:28;;;;;;;;;15.00;11.33;;;;;-147.59;100.00;57188.72;6302224;22;45570;-83
2022/01/23 08:16:53;;;;;;;;;16.33;13.00;;;;;-147.59;100.00;57188.72;6302337;22;47453;-83
2022/01/23 08:19:19;;;;;;;;;13.00;11.33;;;;;-147.59;100.00;57188.72;6304280;22;45301;-83
2022/01/23 08:21:44;;;;;;;;;11.00;10.33;;;;;-147.59;100.00;57188.72;6303231;22;45412;-83
2022/01/23 08:24:11;;;;;;;;;21.00;14.67;;;;;-147.59;100.00;57188.72;6303854;22;45531;-83
2022/01/23 08:26:37;;;;;;;;;11.33;9.33;;;;;-147.59;100.00;57188.72;6303199;22;47094;-83
2022/01/23 08:29:04;;;;;;;;;18.00;10.00;;;;;-147.59;100.00;57188.72;6306055;22;45197;-83
2022/01/23 08:31:29;;;;;;;;;13.67;13.33;;;;;-147.59;100.00;57188.72;6303560;22;45333;-83
2022/01/23 08:33:55;;;;;;;;;15.00;11.33;;;;;-147.59;100.00;57188.72;6305194;22;45167;-83
2022/01/23 08:36:20;;;;;;;;;15.00;11.00;;;;;-147.59;100.00;57188.72;6305157;22;45294;-83
2022/01/23 08:38:46;;;;;;;;;15.00;13.00;;;;;-147.59;100.00;57188.72;6303348;22;45553;-83
2022/01/23 08:43:55;;;;;;;;;19.33;12.33;;;;;-147.59;100.00;57188.72;6305502;22;45299;-83
2022/01/23 08:46:21;;;;;;;;;14.33;12.33;;;;;-147.59;100.00;57188.72;6305144;22;46086;-83
2022/01/23 08:48:47;;;;;;;;;18.67;12.67;;;;;-147.59;100.00;57188.72;6305311;22;45353;-83
2022/01/23 08:51:12;;;;;;;;;16.00;12.33;;;;;-147.59;100.00;57188.72;6305493;22;45346;-83
2022/01/23 08:53:38;;;;;;;;;11.67;10.67;;;;;-147.59;100.00;57188.72;6305389;22;45339;-83
2022/01/23 08:56:04;;;;;;;;;11.33;10.00;;;;;-147.59;100.00;57188.72;6302630;22;47207;-83
2022/01/23 08:58:29;;;;;;;;;15.33;12.33;;;;;-147.59;100.00;57188.72;6305535;22;45434;-83
2022/01/23 09:00:55;;;;;;;;;12.67;10.00;;;;;-147.59;100.00;57188.72;6304862;22;45248;-83
2022/01/23 09:03:20;;;;;;;;;9.67;8.67;;;;;-147.59;100.00;57188.72;6306103;22;45351;-83
2022/01/23 09:05:46;;;;;;;;;11.00;11.00;;;;;-147.59;100.00;57188.72;6305492;22;46368;-84
2022/01/23 09:08:11;;;;;;;;;11.67;10.00;;;;;-147.59;100.00;57188.72;6303751;22;45293;-83
2022/01/23 09:10:42;;;;;;;;;11.67;6.67;;;;;-147.59;100.00;57188.72;6302879;22;45444;-83
2022/01/23 09:15:35;;;;;;;;;12.67;12.67;;;;;-147.59;100.00;57188.72;6304719;22;45334;-84
2022/01/23 09:18:00;;;;;;;;;9.33;7.00;;;;;-147.59;100.00;57188.72;6303149;22;45514;-83
2022/01/23 09:20:26;;;;;;;;;11.33;10.33;;;;;-147.59;100.00;57188.72;6305195;22;45335;-83
2022/01/23 09:22:51;;;;;;;;;7.00;6.00;;;;;-147.59;100.00;57188.72;6304469;22;45392;-94
2022/01/23 09:25:18;;;;;;;;;15.33;13.00;;;;;-147.59;100.00;57188.72;6303196;22;47021;-84
2022/01/23 09:27:44;;;;;;;;;11.00;8.00;;;;;-147.59;100.00;57188.72;6306410;22;45196;-89
2022/01/23 09:30:17;;;;;;;;;18.00;11.33;;;;;-147.59;100.00;57188.72;6304483;22;45214;-88
2022/01/23 09:32:44;;;;;;;;;15.33;15.33;;;;;-147.59;100.00;57188.72;6303474;22;45518;-88
2022/01/23 09:35:10;;;;;;;;;13.67;13.67;;;;;-147.59;100.00;57188.72;6300901;22;47315;-88
2022/01/23 09:37:36;;;;;;;;;12.67;12.00;;;;;-147.59;100.00;57188.72;6291253;22;45431;-84
2022/01/23 09:40:05;;;;;;;;;18.67;15.67;;;;;-147.59;100.00;57188.72;6292525;22;45762;-87
2022/01/23 09:42:39;;;;;;;;;19.33;13.67;;;;;-147.59;100.00;57188.72;6296105;22;45396;-85
2022/01/23 09:45:09;;;;;;;;;20.00;15.00;;;;;-147.59;100.00;57188.72;6295089;22;45889;-87
2022/01/23 09:47:36;;;;;;;;;12.00;11.00;;;;;-147.59;100.00;57188.72;6293428;22;45724;-87
2022/01/23 09:50:04;;;;;;;;;10.67;7.67;;;;;-147.59;100.00;57188.72;6291940;22;45514;-83
2022/01/23 09:52:33;;;;;;;;;13.33;11.67;;;;;-147.59;100.00;57188.72;6293334;22;45683;-84
2022/01/23 09:55:06;;;;;;;;;12.00;12.00;;;;;-147.59;100.00;57188.72;6290866;22;47081;-84
2022/01/23 09:57:33;;;;;;;;;8.67;8.00;;;;;-147.59;100.00;57188.72;6293100;22;45497;-85
2022/01/23 10:00:00;;;;;;;;;15.67;10.67;;;;;-147.59;100.00;57188.72;6290654;22;45356;-84
2022/01/23 10:02:28;;;;;;;;;16.00;12.33;;;;;-147.59;100.00;57188.72;6291065;22;45621;-83
2022/01/23 10:04:55;;;;;;;;;9.33;6.67;;;;;-147.59;100.00;57188.72;6292532;22;45591;-83
2022/01/23 10:07:23;;;;;;;;;14.67;12.33;;;;;-147.59;100.00;57188.72;6291192;22;45480;-82
2022/01/23 10:09:54;;;;;;;;;12.67;9.00;;;;;-147.59;100.00;57188.72;6290343;22;45559;-80
2022/01/23 10:12:26;;;;;;;;;10.00;9.33;;;;;-147.59;100.00;57188.72;6323159;22;45464;-84
2022/01/23 10:14:52;;;;;;;;;17.00;13.67;;;;;-147.59;100.00;57188.72;6295425;22;47059;-84
2022/01/23 10:17:18;;;;;;;;;13.00;11.33;;;;;-147.59;100.00;57188.72;6295746;22;45450;-83
2022/01/23 10:19:45;;;;;;;;;13.00;11.00;;;;;-147.59;100.00;57188.72;6323637;22;45372;-83
2022/01/23 10:22:12;;;;;;;;;8.67;7.67;;;;;-147.59;100.00;57188.72;6294700;22;45614;-84
2022/01/23 10:24:38;;;;;;;;;14.33;12.33;;;;;-147.59;100.00;57188.72;6295820;22;47411;-81
2022/01/23 10:27:04;;;;;;;;;18.00;13.00;;;;;-147.59;100.00;57188.72;6295377;22;45407;-81
2022/01/23 10:29:36;;;;;;;;;8.00;8.00;;;;;-147.59;100.00;57188.72;6296386;22;45601;-81
2022/01/23 10:32:21;;;;;;;;;12.00;8.67;;;;;-147.59;100.00;57188.72;6295723;22;45493;-81
2022/01/23 10:34:56;;;;;;;;;12.00;12.00;;;;;-147.59;100.00;57188.72;6323850;22;46373;-80
2022/01/23 10:37:30;;;;;;;;;15.33;10.67;;;;;-147.59;100.00;57188.72;6294928;22;45381;-81
2022/01/23 10:39:56;;;;;;;;;12.33;11.33;;;;;-147.59;100.00;57188.72;6323987;22;45372;-80
2022/01/23 10:50:48;;;;;;;;;15.00;11.67;;;;;-147.59;100.00;57188.72;6325887;22;45422;-88
2022/01/23 10:53:14;;;;;;;;;14.33;14.33;;;;;-147.59;100.00;57188.72;6296134;22;45371;-84
2022/01/23 10:55:39;;;;;;;;;16.33;15.00;;;;;-147.59;100.00;57188.72;6295909;22;48003;-84
2022/01/23 10:58:17;;;;;;;;;16.33;12.00;;;;;-147.59;100.00;57188.72;6324214;22;45510;-88
2022/01/23 11:00:42;;;;;;;;;14.33;13.00;;;;;-147.59;100.00;57188.72;6296427;22;45380;-89
2022/01/23 11:03:34;;;;;;;;;12.00;12.00;;;;;-147.59;100.00;57188.72;6298475;22;45312;-85
2022/01/23 11:05:59;;;;;;;;;14.33;12.67;;;;;-147.59;100.00;57188.72;6291143;22;48050;-89
2022/01/23 11:08:29;;;;;;;;;17.67;15.33;;;;;-147.59;100.00;57188.72;6295513;22;45385;-84
2022/01/23 11:11:04;;;;;;;;;18.00;13.00;;;;;-147.59;100.00;57188.72;6309951;22;45423;-86
2022/01/23 11:19:27;;;;;;;;;10.00;9.33;;;;;-147.59;100.00;57188.72;6292860;22;45359;-84
2022/01/23 11:21:53;;;;;;;;;7.33;7.33;;;;;-147.59;100.00;57188.72;6290893;22;45345;-84
2022/01/23 11:24:20;;;;;;;;;10.67;9.00;;;;;-147.59;100.00;57188.72;6294872;22;45395;-84
2022/01/23 11:26:46;;;;;;;;;12.67;8.67;;;;;-147.59;100.00;57188.72;6291522;22;46384;-83
2022/01/23 11:29:18;;;;;;;;;14.00;11.00;;;;;-147.59;100.00;57188.72;6291215;22;45770;-82
2022/01/23 11:31:45;;;;;;;;;12.33;11.00;;;;;-147.59;100.00;57188.72;6292317;22;45445;-84
2022/01/23 11:34:13;;;;;;;;;8.67;7.67;;;;;-147.59;100.00;57188.72;6290335;22;45722;-84
2022/01/23 11:36:40;;;;;;;;;13.33;9.67;;;;;-147.59;100.00;57188.72;6289808;22;47958;-84
2022/01/23 11:39:15;;;;;;;;;14.33;12.00;;;;;-147.59;100.00;57188.72;6290560;22;45308;-84
2022/01/23 11:56:32;;;;;;;;;12.67;12.67;;;;;-147.59;100.00;57188.72;6294081;22;45919;-83
2022/01/23 11:59:10;;;;;;;;;13.67;11.67;;;;;-147.59;100.00;57188.72;6290697;22;47053;-82
2022/01/23 12:01:36;;;;;;;;;13.67;11.00;;;;;-147.59;100.00;57188.72;6291241;22;45342;-83
2022/01/23 12:04:08;;;;;;;;;10.00;8.00;;;;;-147.59;100.00;57188.72;6290786;22;45783;-81
2022/01/23 12:06:36;;;;;;;;;15.67;10.67;;;;;-147.59;100.00;57188.72;6292214;22;45598;-82
2022/01/23 12:09:13;;;;;;;;;8.00;6.33;;;;;-147.59;100.00;57188.72;6291205;22;48266;-83
2022/01/23 12:11:43;;;;;;;;;13.00;12.00;;;;;-147.59;100.00;57188.72;6291108;22;45571;-83
2022/01/23 12:17:01;;;;;;;;;17.33;14.33;;;;;-147.59;100.00;57188.72;6293369;22;45388;-84
2022/01/23 12:19:32;;;;;;;;;20.00;13.00;;;;;-147.59;100.00;57188.72;6291119;22;47233;-82
2022/01/23 12:22:23;;;;;;;;;16.00;15.00;;;;;-147.59;100.00;57188.72;6291794;22;45759;-84
2022/01/23 12:24:50;;;;;;;;;13.00;11.00;;;;;-147.59;100.00;57188.72;6291982;22;45491;-83
2022/01/23 12:27:27;;;;;;;;;16.67;13.33;;;;;-147.59;100.00;57188.72;6292481;22;45825;-83
2022/01/23 12:30:15;;;;;;;;;19.00;16.33;;;;;-147.59;100.00;57188.72;6292396;22;47255;-85
2022/01/23 12:32:41;;;;;;;;;17.00;17.00;;;;;-147.59;100.00;57188.72;6291748;22;45952;-84
2022/01/23 12:35:10;;;;;;;;;19.67;15.67;;;;;-147.59;100.00;57188.72;6291546;22;45392;-84
2022/01/23 12:38:00;;;;;;;;;22.67;17.67;;;;;-147.59;100.00;57188.72;6292857;22;45478;-80
2022/01/23 12:40:29;;;;;;;;;22.00;17.67;;;;;-147.59;100.00;57188.72;6291473;22;48454;-82
2022/01/23 12:43:18;;;;;;;;;19.33;16.33;;;;;-147.59;100.00;57188.72;6290584;22;45897;-84
2022/01/23 12:45:58;;;;;;;;;15.67;12.33;;;;;-147.59;100.00;57188.72;6274874;22;45497;-83
2022/01/23 12:48:27;;;;;;;;;16.33;12.00;;;;;-147.59;100.00;57188.72;6291732;22;46003;-86
2022/01/23 12:51:04;;;;;;;;;23.33;19.00;;;;;-147.59;100.00;57188.72;6292236;22;47236;-84
2022/01/23 12:53:47;;;;;;;;;20.00;16.00;;;;;-147.59;100.00;57188.72;6292839;22;45514;-86
2022/01/23 12:56:16;;;;;;;;;27.33;23.33;;;;;-147.59;100.00;57188.72;6291694;22;45314;-87
2022/01/23 12:58:53;;;;;;;;;27.67;20.00;;;;;-147.59;100.00;57188.72;6292704;22;45515;-92
2022/01/23 13:01:25;;;;;;;;;23.67;19.67;;;;;-147.59;100.00;57188.72;6296962;22;46094;-89
2022/01/23 13:04:02;;;;;;;;;29.33;23.33;;;;;-147.59;100.00;57188.72;6293934;22;45944;-87
2022/01/23 13:06:36;;;;;;;;;25.67;19.67;;;;;-147.59;100.00;57188.72;6294192;22;45482;-87
2022/01/23 13:12:05;;;;;;;;;15.00;14.33;;;;;-147.59;100.00;57188.72;6294595;22;45385;-85
2022/01/23 13:14:44;;;;;;;;;17.33;12.33;;;;;-147.59;100.00;57188.72;6295917;22;45456;-88
2022/01/23 13:30:50;;;;;;;;;34.33;28.00;;;;;-147.59;100.00;57188.72;6292389;22;45821;-84
2022/01/23 13:33:21;;;;;;;;;27.00;23.67;;;;;-147.59;100.00;57188.72;6292459;22;46911;-84
2022/01/23 13:35:51;;;;;;;;;25.67;25.00;;;;;-147.59;100.00;57188.72;6292050;22;45883;-86
2022/01/23 13:38:19;;;;;;;;;15.00;15.00;;;;;-147.59;100.00;57188.72;6290935;22;45536;-84
2022/01/23 13:40:45;;;;;;;;;17.00;16.33;;;;;-147.59;100.00;57188.72;6292953;22;45601;-88
2022/01/23 14:02:27;;;;;;;;;19.33;18.00;;;;;-147.59;100.00;57188.72;6295046;22;45482;-87
2022/01/23 14:05:19;;;;;;;;;27.00;21.33;;;;;-147.59;100.00;57188.72;6291640;22;47573;-86
2022/01/23 14:07:52;;;;;;;;;28.33;26.00;;;;;-147.59;100.00;57188.72;6291726;22;45331;-84
2022/01/23 14:10:22;;;;;;;;;27.33;21.00;;;;;-147.59;100.00;57188.72;6290792;22;45560;-84
2022/01/23 14:12:52;;;;;;;;;22.00;17.67;;;;;-147.59;100.00;57188.72;6293225;22;45388;-81
2022/01/23 14:15:28;;;;;;;;;21.00;19.33;;;;;-147.59;100.00;57188.72;6291126;22;46133;-88
2022/01/23 14:18:05;;;;;;;;;23.00;20.00;;;;;-147.59;100.00;57188.72;6290059;22;45712;-87
2022/01/23 14:20:43;;;;;;;;;22.67;19.33;;;;;-147.59;100.00;57188.72;6292678;22;45453;-87
2022/01/23 14:23:16;;;;;;;;;22.00;20.00;;;;;-147.59;100.00;57188.72;6293816;22;45368;-86
2022/01/23 14:25:54;;;;;;;;;21.67;17.67;;;;;-147.59;100.00;57188.72;6292668;22;45466;-83
2022/01/23 14:28:23;;;;;;;;;27.33;21.33;;;;;-147.59;100.00;57188.72;6291784;22;45503;-85
2022/01/23 14:30:55;;;;;;;;;17.33;13.67;;;;;-147.59;100.00;57188.72;6290838;22;45777;-84
2022/01/23 14:33:29;;;;;;;;;24.67;22.67;;;;;-147.59;100.00;57188.72;6290977;22;45356;-85
2022/01/23 14:35:55;;;;;;;;;21.33;20.33;;;;;-147.59;100.00;57188.72;6291359;22;47958;-83
2022/01/23 14:38:25;;;;;;;;;32.00;26.33;;;;;-147.59;100.00;57188.72;6292754;22;45473;-89
2022/01/23 14:41:09;;;;;;;;;22.33;20.67;;;;;-147.59;100.00;57188.72;6293776;22;45470;-89
2022/01/23 14:43:38;;;;;;;;;28.00;22.00;;;;;-147.59;100.00;57188.72;6292523;22;45449;-86